Scroll down
FLIGHT INFORMATION
Cathay Pacific

CPA806

At Arrival Gate

VHHH
 KORD
DATE: 2020-12-24
GATE: N30
GATE DEPARTURE: 03:31
TAKEOFF: 03:42
DATE: 2020-12-24
GATE:  -
LANDING: 17:54
GATE ARRIVAL: 18:02
FLIGHT DATA
Crew: 
Speed: 
943 kph
Altitude: 
37,025 ft
Stage Length: 
12,522.2 km
Block Time: 
14.5 hrs
Flight Time: 
14.2 hrs
Fuel Used: 
114,187 kg
Cleared Route: VHHH DE07L ROVER RAMEN OCEAN RASSE CONGA ENVAR DADON EXTRA RENOT TONGA TOROX ANLOT PILOX SANAS KUDOS LEKOS MORSU MOLKA MAMOD MUMBA MELEN MOMPA MIDAI MADOG MEXIR IMPAL OTOWA ANKIX IGMIS MOSLO TASOT LAKOS LIGNI POROT KALNA N4200.0E16000.0 N4500.0E17000.0 N4800.0E18000.0 N5000.0W17000.0 N5100.0W16000.0 N5100.0W15000.0 N5000.0W14000.0 PRETY TAMRU SEFIX CASDY YVR CFDDH SHUKA CASCD TWISP GEG HILIE MLP HLN BIL RECAP DPR FSD HAYNS ONTIJ MCW ZZIPR KORD
TRACK DATA
50,000 ft 1,000 kts
AIRCRAFT INFO AND CUMULATIVE STATS
Aircraft Type: 
B77W
Registration: 
SELCAL: 
JQCR
MSN/LN: 
36158 / 783
Operator: 
Total Flights: 
4
Total Block Time: 
39.3 hrs
Total Flight Time: 
38.5 hrs
Total Fuel Used: 
307,694 kg
DATALINK LOG | Newest first | Current as of: 2022-09-30 01:16:56
LABEL SEQUENCE CONTENT Dn/Up
QD231318:02 30.5▼ Dn
QC184517:54▼ Dn
2U4917KORD 241815Z 28013G20KT 10SM SCT027 OVC034 M09/M16 A2980 RMK AO2 T10941156▲ Up
2S4917KORD▼ Dn
QB060403:42▼ Dn
QA562503:31 282.4▼ Dn
2U4920VHHH 240430Z 31009KT 7000 FEW030 21/14 Q1016 NOSIG▲ Up
2S4920VHHH▼ Dn
A34919CLEARED TO KORD VIA RASSE V3 ENVAR M750 ANKIX Y891 IGMIS Y57 LAKOS Y57 POROT KALNA 42N160E 45N170E 48N180E 50N170W 51N160W 51N150W 50N140W PRETY TAMRU SEFIX CASDY J500 YVR J52 CASCD J52 GEG J136 BIL J16 MCW ZZIPR FYTTE6. SQUAWK 3715.▲ Up
Q04818[LINK ACK]▲ Up
Q04818[LINK TEST]▼ Dn


AIRCRAFT HISTORY
FLIGHT DATE FLIGHT NO. ORIGIN DESTINATION CLEARED ROUTE BLOCK TIME FLIGHT TIME FUEL USED PILOT
2021-07-08CPA708KMCO LOWW KMCO GUANO FEMON VIYAP SUSYQ TAALN JROSS RAYVO FKN KATZN MANTA PLUME SHERL DUNEE SARDI SHLEP HOFFI AJJAY EBONY ALLRY 5150N 5240N 5230N 5220N LIMRI XETBO LORLA EVRIN NEKAP LAZTU ABDUK NUMPO PUPJO INLAK KONAN KOK SPI PELIX MATUG BOMBI TENLO DEXIT VENEN LOWW9 hrs8.9 hrs150,654 lbAlex K.
2021-07-08CPA708KORD KMCO KORD EARND ELANR EMMLY ERECO IIU GLAZR AHN CESKI TRASY JEFOI SHEMP KMCO2.2 hrs2 hrs38,753 lbAlex K.
2020-12-24CPA806VHHH KORD VHHH DE07L ROVER RAMEN OCEAN RASSE CONGA ENVAR DADON EXTRA RENOT TONGA TOROX ANLOT PILOX SANAS KUDOS LEKOS MORSU MOLKA MAMOD MUMBA MELEN MOMPA MIDAI MADOG MEXIR IMPAL OTOWA ANKIX IGMIS MOSLO TASOT LAKOS LIGNI POROT KALNA N4200.0E16000.0 N4500.0E17000.0 N4800.0E18000.0 N5000.0W17000.0 N5100.0W16000.0 N5100.0W15000.0 N5000.0W14000.0 PRETY TAMRU SEFIX CASDY YVR CFDDH SHUKA CASCD TWISP GEG HILIE MLP HLN BIL RECAP DPR FSD HAYNS ONTIJ MCW ZZIPR KORD14.5 hrs14.2 hrs251,740 lbMichael Roth
2020-12-06CPA837CYVR VHHH 13.7 hrs13.5 hrs237,202 lbMichael Roth